UKBB Airport Information

Runway Information
Runway 18L Length 13123 ft width 197 ft
Elevation 410 ft Threshold 0 ft Heading 183
Runway 36R Length 13123 ft Width 197 ft
Elevation 422 ft Threshold 0 ft Heading 3
Runway 18R Length 11483 ft width 206 ft
Elevation 419 ft Threshold 0 ft Heading 183
Runway 36L Length 11483 ft Width 206 ft
Elevation 403 ft Threshold 0 ft Heading 3
Airport Frequencies
Type ATIS Name ATIS Frequency 126.7 MHZ
Type CLD Name DLV Frequency 130.275 MHZ
Type GND Name GND Frequency 118.05 MHZ
Type OPS Name OPS Frequency 131.775 MHZ
Type RDR Name KYIV RADAR Frequency 124.675 MHZ
Type TWR Name TWR Frequency 119.65 MHZ
Airport Navaids
Type NDB Name Boryspil Frequency 310 KHZ
Type VOR-DME Name Boryspil Frequency 115900 KHZ
Type NDB Name Boryspil Frequency 825 KHZ
Type NDB Name Boryspil Frequency 825 KHZ
Type NDB Name Boryspil Frequency 310 KHZ
Airport Weather Information & NOTAM
ADDS - METARS form results

(0310 UTC 23 January 2022)
Data provider http://aviationweather.gov/metar/data/
 
METAR text: UKBB 230300Z 26001MPS 1600 0400NW R36R/2000D R36L/0800 FZFG SCT007 M10/M11 Q1015 NOSIG
Conditions at: UKBB (BORISPOL'/KIEV , UA) observed 0300 UTC 23 January 2022
Temperature: -10.0°C (14°F)
Dewpoint: -11.0°C (12°F) [RH = 92%]
Pressure (altimeter): 29.97 inches Hg (1015.0 mb)
Winds: from the W (260 degrees) at 2 MPH (2 knots; 1.0 m/s)
Visibility: 0.99 miles (1.59 km)
Ceiling: at least 12,000 feet AGL
Clouds: scattered clouds at 700 feet AGL
Weather: FZFG  (freezing fog)

METAR text: UKBB 230247Z 25001MPS 0600 0400NW R36R/0550 R36L/0700 FZFG FEW005 SCT010 BKN040 M10/M11 Q1014 NOSIG
Conditions at: UKBB (BORISPOL'/KIEV , UA) observed 0247 UTC 23 January 2022
Temperature: -10.0°C (14°F)
Dewpoint: -11.0°C (12°F) [RH = 92%]
Pressure (altimeter): 29.94 inches Hg (1014.0 mb)
Winds: from the WSW (250 degrees) at 2 MPH (2 knots; 1.0 m/s)
Visibility: 0.37 miles (0.60 km)
Ceiling: 4000 feet AGL
Clouds: few clouds at 500 feet AGL
scattered clouds at 1000 feet AGL
broken clouds at 4000 feet AGL
Weather: FZFG  (freezing fog)

METAR text: UKBB 230230Z 23002MPS 8000 0400NW R36R/P2000N R36L/P2000N -SN FZFG SCT010 BKN036 M08/M09 Q1014 NOSIG
Conditions at: UKBB (BORISPOL'/KIEV , UA) observed 0230 UTC 23 January 2022
Temperature: -8.0°C (18°F)
Dewpoint: -9.0°C (16°F) [RH = 92%]
Pressure (altimeter): 29.94 inches Hg (1014.0 mb)
Winds: from the SW (230 degrees) at 5 MPH (4 knots; 2.1 m/s)
Visibility: 5 miles ( 8 km)
Ceiling: 3600 feet AGL
Clouds: scattered clouds at 1000 feet AGL
broken clouds at 3600 feet AGL
Weather: FZFG -SN  (freezing fog, light snow)

Forecast for: UKBB (BORISPOL'/KIEV , UA)
Text: TAF UKBB 222305Z 2300/2324 28003G08MPS 4000 -SN BR OVC006
Forecast period: 0000 to 0200 UTC 23 January 2022
Forecast type: FROM: standard forecast or significant change
Winds: from the W (280 degrees) at 7 MPH (6 knots; 3.1 m/s)
gusting to 18 MPH (16 knots; 8.2 m/s)
Visibility: 2.49 miles (4.01 km)
Ceiling: 600 feet AGL
Clouds: overcast cloud deck at 600 feet AGL
Weather: -SN BR  (light snow, mist)
Text: TEMPO 2300/2307 0300 +SHSN FZFG BKN002 SCT015CB
Forecast period: 0000 to 0700 UTC 23 January 2022
Forecast type: TEMPORARY: The following changes expected for less than half the time period
Visibility: 0.19 miles (0.31 km)
Ceiling: 200 feet AGL
Clouds: broken clouds at 200 feet AGL
scattered clouds at 1500 feet AGL
Weather: +SHSN FZFG  (heavy snow showers, freezing fog)
Text: BECMG 2302/2304 34003G08MPS
Forecast period: 0200 to 0700 UTC 23 January 2022
Forecast type: BECOMING: Conditions expected to become as follows by 0400 UTC 23 January 2022
Winds: from the NNW (340 degrees) at 7 MPH (6 knots; 3.1 m/s)
gusting to 18 MPH (16 knots; 8.2 m/s)
Visibility: 2.49 miles (4.01 km)
Ceiling: 600 feet AGL
Clouds: overcast cloud deck at 600 feet AGL
Weather: -SN BR  (light snow, mist)
Text: BECMG 2307/2309 02005G10MPS 9999 NSW BKN010
Forecast period: 0700 UTC 23 January 2022 to 0000 UTC 24 January 2022
Forecast type: BECOMING: Conditions expected to become as follows by 0900 UTC 23 January 2022
Winds: from the NNE (20 degrees) at 12 MPH (10 knots; 5.1 m/s)
gusting to 22 MPH (19 knots; 9.8 m/s)
Visibility: 6 or more miles (10+ km)
Ceiling: 1000 feet AGL
Clouds: broken clouds at 1000 feet AGL
Weather: NSW  (no significant weather)